createdAt,value
2022-12-20T00:02:01.732Z,96.93
2022-12-20T00:04:31.646Z,95.33
2022-12-20T00:07:00.855Z,94.56
2022-12-20T00:09:30.391Z,96.44
2022-12-20T00:12:00.573Z,96.62
2022-12-20T00:14:30.171Z,96.47
2022-12-20T00:16:59.474Z,96.49
2022-12-20T00:19:29.097Z,96.49
2022-12-20T00:21:58.746Z,97.02
2022-12-20T00:24:28.187Z,97.52
2022-12-20T00:26:57.668Z,97.42
2022-12-20T00:29:26.713Z,96.73
2022-12-20T00:31:55.948Z,96.55
2022-12-20T00:34:25.421Z,98.10
2022-12-20T00:36:54.767Z,98.70
2022-12-20T00:39:24.531Z,97.92
2022-12-20T00:41:55.259Z,96.09
2022-12-20T00:44:25.645Z,95.70
2022-12-20T00:46:55.092Z,96.12
2022-12-20T00:49:26.455Z,97.00
2022-12-20T00:51:57.230Z,97.85
2022-12-20T00:54:26.462Z,96.91
2022-12-20T00:56:56.293Z,96.25
2022-12-20T00:59:26.519Z,96.64
2022-12-20T01:01:56.332Z,97.06
2022-12-20T01:04:26.644Z,96.91
2022-12-20T01:06:56.637Z,96.63
2022-12-20T01:09:26.882Z,97.18
2022-12-20T01:11:56.518Z,97.54
2022-12-20T01:14:26.799Z,98.73
2022-12-20T01:16:57.003Z,97.96
2022-12-20T01:19:28.198Z,97.61
2022-12-20T01:21:58.146Z,97.91
2022-12-20T01:24:27.761Z,98.10
2022-12-20T01:26:56.698Z,97.97
2022-12-20T01:29:25.861Z,97.71
2022-12-20T01:31:55.364Z,97.44
2022-12-20T01:34:24.264Z,97.13
2022-12-20T01:36:54.613Z,96.99
2022-12-20T01:39:23.473Z,97.06
2022-12-20T01:41:53.089Z,96.82
2022-12-20T01:44:22.839Z,96.67
2022-12-20T01:46:53.827Z,96.97
2022-12-20T01:49:32.318Z,97.04
2022-12-20T01:52:07.261Z,96.73
2022-12-20T01:54:46.997Z,96.45
2022-12-20T01:57:26.361Z,96.06
2022-12-20T01:59:57.609Z,95.99
2022-12-20T02:02:28.893Z,95.92
2022-12-20T02:04:59.538Z,96.23
2022-12-20T02:07:34.928Z,96.22
2022-12-20T02:10:09.584Z,96.83
2022-12-20T02:12:45.804Z,96.62
2022-12-20T02:15:44.557Z,96.41
2022-12-20T02:18:14.739Z,96.16
2022-12-20T02:21:08.000Z,96.45
2022-12-20T02:24:15.724Z,96.74
2022-12-20T02:27:21.413Z,96.61
2022-12-20T02:30:11.771Z,95.91
2022-12-20T02:32:53.696Z,96.92
2022-12-20T02:35:27.054Z,94.30
2022-12-20T02:38:04.382Z,93.49
2022-12-20T02:40:42.970Z,95.32
2022-12-20T02:43:31.694Z,94.50
2022-12-20T02:46:03.731Z,95.11
2022-12-20T02:48:36.839Z,96.04
2022-12-20T02:51:08.804Z,97.18
2022-12-20T02:53:42.853Z,97.90
2022-12-20T02:56:35.503Z,96.56
2022-12-20T02:59:11.411Z,96.04
2022-12-20T03:01:55.864Z,96.11
2022-12-20T03:04:36.043Z,95.44
2022-12-20T03:07:14.654Z,95.98
2022-12-20T03:09:48.040Z,97.15
2022-12-20T03:12:19.735Z,96.66
2022-12-20T03:14:50.170Z,96.54
2022-12-20T03:17:20.981Z,96.19
2022-12-20T03:19:51.098Z,96.07
2022-12-20T03:22:21.829Z,96.77
2022-12-20T03:24:51.977Z,97.59
2022-12-20T03:27:22.432Z,97.47
2022-12-20T03:29:52.437Z,97.48
2022-12-20T03:32:23.077Z,97.34
2022-12-20T03:34:52.561Z,97.38
2022-12-20T03:37:27.640Z,97.71
2022-12-20T03:39:58.436Z,97.25
2022-12-20T03:42:28.839Z,97.11
2022-12-20T03:45:00.982Z,96.99
2022-12-20T03:47:32.415Z,96.57
2022-12-20T03:50:03.042Z,96.56
2022-12-20T03:52:37.015Z,97.50
2022-12-20T03:55:08.262Z,97.83
2022-12-20T03:57:44.535Z,98.21
2022-12-20T04:00:27.124Z,97.72
2022-12-20T04:02:58.777Z,97.48
2022-12-20T04:05:29.340Z,97.47
2022-12-20T04:08:00.544Z,97.23
2022-12-20T04:10:30.116Z,97.02
2022-12-20T04:12:59.768Z,97.23
2022-12-20T04:15:29.664Z,97.39
2022-12-20T04:18:01.169Z,97.20
2022-12-20T04:20:31.610Z,96.64
2022-12-20T04:23:12.459Z,96.97
2022-12-20T04:25:42.766Z,97.86
2022-12-20T04:28:14.078Z,98.58
2022-12-20T04:30:43.969Z,98.78
2022-12-20T04:33:13.589Z,98.45
2022-12-20T04:35:44.438Z,98.17
2022-12-20T04:38:14.819Z,97.92
2022-12-20T04:40:45.470Z,97.75
2022-12-20T04:43:17.947Z,97.37
2022-12-20T04:45:53.258Z,97.16
2022-12-20T04:51:19.995Z,96.46
2022-12-20T04:53:49.496Z,96.50
2022-12-20T04:56:48.139Z,96.32
2022-12-20T04:59:22.475Z,95.91
2022-12-20T05:01:54.115Z,96.02
2022-12-20T05:04:42.980Z,96.02
2022-12-20T05:07:21.731Z,95.82
2022-12-20T05:09:56.012Z,95.83
2022-12-20T05:12:28.653Z,95.37
2022-12-20T05:15:02.087Z,96.31
2022-12-20T05:17:31.072Z,95.97
2022-12-20T05:20:01.545Z,95.14
2022-12-20T05:22:50.699Z,94.85
2022-12-20T05:25:39.324Z,95.14
2022-12-20T05:28:09.539Z,94.58
2022-12-20T05:30:38.782Z,94.62
2022-12-20T05:33:07.853Z,94.80
2022-12-20T05:35:37.762Z,95.27
2022-12-20T05:38:10.441Z,96.44
2022-12-20T05:40:41.576Z,97.87
2022-12-20T05:43:11.895Z,97.72
2022-12-20T05:45:51.657Z,97.45
2022-12-20T05:48:24.643Z,97.34
2022-12-20T05:50:55.363Z,97.74
2022-12-20T05:53:29.512Z,98.04
2022-12-20T05:56:02.296Z,97.58
2022-12-20T05:58:34.731Z,97.13
2022-12-20T06:01:08.067Z,96.62
2022-12-20T06:03:41.069Z,96.65
2022-12-20T06:06:16.561Z,96.59
2022-12-20T06:08:48.613Z,96.48
2022-12-20T06:11:34.197Z,96.52
2022-12-20T06:14:08.012Z,97.02
2022-12-20T06:16:39.983Z,97.52
2022-12-20T06:19:14.721Z,97.35
2022-12-20T06:21:48.806Z,97.32
2022-12-20T06:24:19.039Z,97.31
2022-12-20T06:26:48.236Z,96.50
2022-12-20T06:29:18.447Z,96.12
2022-12-20T06:31:52.826Z,96.45
2022-12-20T06:34:22.734Z,96.98
2022-12-20T06:36:51.878Z,97.21
2022-12-20T06:39:26.399Z,97.48
2022-12-20T06:42:02.768Z,97.72
2022-12-20T06:44:31.556Z,97.72
2022-12-20T06:47:02.386Z,97.38
2022-12-20T06:49:31.597Z,96.97
2022-12-20T06:52:00.924Z,96.50
2022-12-20T06:54:51.483Z,96.12
2022-12-20T06:57:22.566Z,95.48
2022-12-20T06:59:51.323Z,95.34
2022-12-20T07:02:20.717Z,95.09
2022-12-20T07:04:50.117Z,94.84
2022-12-20T07:07:20.154Z,94.65
2022-12-20T07:09:49.451Z,89.28
2022-12-20T07:12:19.511Z,86.35
2022-12-20T07:14:49.067Z,84.54
2022-12-20T07:17:17.853Z,84.26
2022-12-20T07:19:50.791Z,80.89
2022-12-20T07:22:21.864Z,80.54
2022-12-20T07:24:50.857Z,84.63
2022-12-20T07:27:20.156Z,81.32
2022-12-20T07:29:49.055Z,71.04
2022-12-20T07:32:18.020Z,70.71
2022-12-20T07:34:47.000Z,72.31
2022-12-20T07:37:16.371Z,70.99
2022-12-20T07:39:45.453Z,70.04
2022-12-20T07:42:14.709Z,73.38
2022-12-20T07:44:44.968Z,70.90
2022-12-20T07:47:13.902Z,71.11
2022-12-20T07:49:42.955Z,72.39
2022-12-20T07:52:14.870Z,72.97
2022-12-20T07:54:54.205Z,73.34
2022-12-20T07:57:38.291Z,71.94
2022-12-20T08:00:09.522Z,72.57
2022-12-20T08:02:49.719Z,72.99
2022-12-20T08:05:18.824Z,70.75
2022-12-20T08:07:53.489Z,70.14
2022-12-20T08:10:26.960Z,67.12
2022-12-20T08:12:56.821Z,67.93
2022-12-20T08:15:26.730Z,70.22
2022-12-20T08:17:55.479Z,72.22
2022-12-20T08:20:24.416Z,72.47
2022-12-20T08:22:53.129Z,73.89
2022-12-20T08:25:21.980Z,73.15
2022-12-20T08:27:50.776Z,72.08
2022-12-20T08:30:19.900Z,72.08
2022-12-20T08:32:48.767Z,72.14
2022-12-20T08:35:17.848Z,71.62
2022-12-20T08:37:46.540Z,72.40
2022-12-20T08:40:15.694Z,72.39
2022-12-20T08:42:44.520Z,71.71
2022-12-20T08:45:13.821Z,72.23
2022-12-20T08:47:43.469Z,72.60
2022-12-20T08:50:14.003Z,73.06
2022-12-20T08:52:42.746Z,73.82
2022-12-20T08:55:13.084Z,74.26
2022-12-20T08:57:42.214Z,73.76
2022-12-20T09:00:11.769Z,73.88
2022-12-20T09:02:41.703Z,74.61
2022-12-20T09:05:10.677Z,74.16
2022-12-20T09:07:39.973Z,73.70
2022-12-20T09:10:10.099Z,74.16
2022-12-20T09:12:39.612Z,74.65
2022-12-20T09:15:09.825Z,76.85
2022-12-20T09:17:38.594Z,76.32
2022-12-20T09:20:08.106Z,74.30
2022-12-20T09:22:36.801Z,74.00
2022-12-20T09:25:07.486Z,72.16
2022-12-20T09:27:36.327Z,71.50
2022-12-20T09:30:06.244Z,71.09
2022-12-20T09:32:35.893Z,70.73
2022-12-20T09:35:05.871Z,71.30
2022-12-20T09:37:35.174Z,72.02
2022-12-20T09:40:04.857Z,71.95
2022-12-20T09:42:33.977Z,72.35
2022-12-20T09:45:09.872Z,71.96
2022-12-20T09:47:39.739Z,70.19
2022-12-20T09:50:18.249Z,69.77
2022-12-20T09:53:06.802Z,69.19
2022-12-20T09:55:50.334Z,68.33
2022-12-20T09:58:25.266Z,65.72
2022-12-20T10:00:54.917Z,66.11
2022-12-20T10:03:29.952Z,66.46
2022-12-20T10:06:38.115Z,66.20
2022-12-20T10:09:19.299Z,66.72
2022-12-20T10:11:57.302Z,66.35
2022-12-20T10:14:48.208Z,65.38
2022-12-20T10:17:41.366Z,65.52
2022-12-20T10:20:32.377Z,65.90
2022-12-20T10:23:15.706Z,64.83
2022-12-20T10:25:46.396Z,65.00
2022-12-20T10:28:17.175Z,65.01
2022-12-20T10:30:46.052Z,64.58
2022-12-20T10:33:22.033Z,64.69
2022-12-20T10:35:51.619Z,64.25
2022-12-20T10:38:21.142Z,63.91
2022-12-20T10:44:05.201Z,63.27
2022-12-20T10:46:41.225Z,63.07
2022-12-20T10:49:31.668Z,63.34
2022-12-20T10:52:09.641Z,62.93
2022-12-20T10:54:39.965Z,62.44
2022-12-20T10:57:25.569Z,60.45
2022-12-20T10:59:58.447Z,59.78
2022-12-20T11:02:42.417Z,59.47
2022-12-20T11:05:12.950Z,59.37
2022-12-20T11:10:49.604Z,58.04
2022-12-20T11:13:26.954Z,57.36
2022-12-20T11:15:57.968Z,57.35
2022-12-20T11:18:35.727Z,57.39
2022-12-20T11:21:14.616Z,57.69
2022-12-20T11:23:57.262Z,55.49
2022-12-20T11:26:52.282Z,55.98
2022-12-20T11:29:36.321Z,55.74
2022-12-20T11:32:27.345Z,54.61
2022-12-20T11:35:11.363Z,53.98
2022-12-20T11:38:09.766Z,53.13
2022-12-20T11:40:51.031Z,52.27
2022-12-20T11:44:22.740Z,51.40
2022-12-20T11:47:02.301Z,50.93
2022-12-20T11:50:10.968Z,51.40
2022-12-20T11:52:46.841Z,51.32
2022-12-20T11:55:42.226Z,51.04
2022-12-20T11:58:28.629Z,50.00
2022-12-20T12:01:08.371Z,49.80
2022-12-20T12:03:39.339Z,47.77
2022-12-20T12:06:37.403Z,45.79
2022-12-20T12:09:18.776Z,45.47
2022-12-20T12:12:07.275Z,43.24
2022-12-20T12:14:42.867Z,41.75
2022-12-20T12:17:27.731Z,40.79
2022-12-20T12:20:10.845Z,40.94
2022-12-20T12:22:41.206Z,41.69
2022-12-20T12:25:15.103Z,42.35
2022-12-20T12:27:44.479Z,41.23
2022-12-20T12:30:17.275Z,41.51
2022-12-20T12:33:10.532Z,42.08
2022-12-20T12:36:13.741Z,40.52
2022-12-20T12:38:42.411Z,39.15
2022-12-20T12:41:21.019Z,39.83
2022-12-20T12:44:18.724Z,39.46
2022-12-20T12:46:58.443Z,40.43
2022-12-20T12:49:30.819Z,39.53
2022-12-20T12:52:03.590Z,40.15
2022-12-20T12:54:40.400Z,40.28
2022-12-20T12:57:17.885Z,41.49
2022-12-20T12:59:52.144Z,41.10
2022-12-20T13:02:27.915Z,41.74
2022-12-20T13:05:01.445Z,41.64
2022-12-20T13:07:35.646Z,44.77
2022-12-20T13:10:10.672Z,44.63
2022-12-20T13:12:39.356Z,45.99
2022-12-20T13:15:20.611Z,46.54
2022-12-20T13:18:11.186Z,48.05
2022-12-20T13:20:40.540Z,49.65
2022-12-20T13:23:09.165Z,51.37
2022-12-20T13:25:43.648Z,50.98
2022-12-20T13:28:25.018Z,50.33
2022-12-20T13:30:54.124Z,50.53
2022-12-20T13:33:47.389Z,50.68
2022-12-20T13:36:16.311Z,49.91
2022-12-20T13:38:54.578Z,48.62
2022-12-20T13:41:34.697Z,48.69
2022-12-20T13:44:16.132Z,48.92
2022-12-20T13:47:06.518Z,51.17
2022-12-20T13:49:40.573Z,51.85
2022-12-20T13:52:12.180Z,51.20
2022-12-20T13:54:49.816Z,52.21
2022-12-20T13:57:26.354Z,52.07
2022-12-20T14:11:28.204Z,53.02
2022-12-20T14:13:58.680Z,53.13
2022-12-20T14:16:28.394Z,53.67
2022-12-20T14:18:56.978Z,54.97
2022-12-20T14:21:26.969Z,56.40
2022-12-20T14:23:58.230Z,59.42
2022-12-20T14:26:33.883Z,60.78
2022-12-20T14:29:04.580Z,61.74
2022-12-20T14:31:33.393Z,61.96
2022-12-20T14:34:31.430Z,60.79
2022-12-20T14:37:36.541Z,61.10
2022-12-20T14:40:13.089Z,61.15
2022-12-20T14:42:41.764Z,60.96
2022-12-20T14:45:10.763Z,61.84
2022-12-20T14:47:55.583Z,62.52
2022-12-20T14:50:31.239Z,63.18
2022-12-20T14:53:00.885Z,67.64
2022-12-20T14:55:39.705Z,69.07
2022-12-20T14:58:26.707Z,69.51
2022-12-20T15:00:57.140Z,72.16
2022-12-20T15:03:27.290Z,72.61
2022-12-20T15:06:00.489Z,72.88
2022-12-20T15:08:34.676Z,73.10
2022-12-20T15:11:09.189Z,74.25
2022-12-20T15:13:43.033Z,74.81
2022-12-20T15:16:14.507Z,72.77
2022-12-20T15:18:43.552Z,73.66
2022-12-20T15:21:22.880Z,71.63
2022-12-20T15:23:54.226Z,71.70
2022-12-20T15:26:25.239Z,72.09
2022-12-20T15:28:54.980Z,71.76
2022-12-20T15:31:32.405Z,73.47
2022-12-20T15:34:12.219Z,73.47
2022-12-20T15:36:40.771Z,75.32
2022-12-20T15:39:13.510Z,73.91
2022-12-20T15:41:49.084Z,75.19
2022-12-20T15:44:30.098Z,74.75
2022-12-20T15:46:59.064Z,74.06
2022-12-20T15:49:32.532Z,74.99
2022-12-20T15:52:01.273Z,76.31
2022-12-20T15:54:35.944Z,77.01
2022-12-20T15:57:10.131Z,77.65
2022-12-20T16:02:29.978Z,76.06
2022-12-20T16:05:00.169Z,74.73
2022-12-20T16:07:29.436Z,75.86
2022-12-20T16:09:58.120Z,76.47
2022-12-20T16:12:34.906Z,76.72
2022-12-20T16:15:04.400Z,74.96
2022-12-20T16:17:32.989Z,73.50
2022-12-20T16:20:01.900Z,73.09
2022-12-20T16:22:30.553Z,73.76
2022-12-20T16:25:00.469Z,78.02
2022-12-20T16:27:29.164Z,79.86
2022-12-20T16:29:58.252Z,79.22
2022-12-20T16:32:26.742Z,80.51
2022-12-20T16:34:55.416Z,81.71
2022-12-20T16:37:24.206Z,81.18
2022-12-20T16:39:52.785Z,82.18
2022-12-20T16:42:22.683Z,80.73
2022-12-20T16:44:52.942Z,79.83
2022-12-20T16:47:22.504Z,79.04
2022-12-20T16:49:53.641Z,78.73
2022-12-20T16:52:23.354Z,78.01
2022-12-20T16:54:52.401Z,78.50
2022-12-20T16:57:21.867Z,79.33
2022-12-20T16:59:50.988Z,80.50
2022-12-20T17:02:23.940Z,79.97
2022-12-20T17:04:52.998Z,78.44
2022-12-20T17:07:21.844Z,78.73
2022-12-20T17:09:52.196Z,80.60
2022-12-20T17:12:21.714Z,82.20
2022-12-20T17:14:50.518Z,83.89
2022-12-20T17:17:19.268Z,83.02
2022-12-20T17:19:47.937Z,86.11
2022-12-20T17:22:24.690Z,85.49
2022-12-20T17:24:53.504Z,83.76
2022-12-20T17:27:22.401Z,84.20
2022-12-20T17:29:51.246Z,83.33
2022-12-20T17:32:22.963Z,84.56
2022-12-20T17:34:51.838Z,83.61
2022-12-20T17:37:21.551Z,82.85
2022-12-20T17:39:50.339Z,86.52
2022-12-20T17:42:19.104Z,86.94
2022-12-20T17:44:47.693Z,87.40
2022-12-20T17:47:17.502Z,88.09
2022-12-20T17:49:46.012Z,87.66
2022-12-20T17:52:15.852Z,87.31
2022-12-20T17:54:44.485Z,86.91
2022-12-20T17:57:17.072Z,88.40
2022-12-20T17:59:45.637Z,91.15
2022-12-20T18:02:26.280Z,90.31
2022-12-20T18:04:55.423Z,89.06
2022-12-20T18:07:24.191Z,88.56
2022-12-20T18:09:52.775Z,89.15
2022-12-20T18:12:21.357Z,88.34
2022-12-20T18:14:50.448Z,86.74
2022-12-20T18:17:19.035Z,85.73
2022-12-20T18:19:47.721Z,87.04
2022-12-20T18:22:16.405Z,89.23
2022-12-20T18:24:45.103Z,89.53
2022-12-20T18:27:14.289Z,89.07
2022-12-20T18:29:43.690Z,86.70
2022-12-20T18:32:12.898Z,85.66
2022-12-20T18:34:41.692Z,83.35
2022-12-20T18:37:11.083Z,82.84
2022-12-20T18:39:39.686Z,82.51
2022-12-20T18:42:08.965Z,87.75
2022-12-20T18:44:37.544Z,88.91
2022-12-20T18:47:06.436Z,89.72
2022-12-20T18:49:35.668Z,90.80
2022-12-20T18:52:04.527Z,92.09
2022-12-20T18:54:33.103Z,91.95
2022-12-20T18:57:01.997Z,91.13
2022-12-20T18:59:30.679Z,91.17
2022-12-20T19:01:59.742Z,89.98
2022-12-20T19:04:28.781Z,92.07
2022-12-20T19:06:57.458Z,92.77
2022-12-20T19:09:26.136Z,91.41
2022-12-20T19:11:57.299Z,91.05
2022-12-20T19:14:26.686Z,90.30
2022-12-20T19:16:55.632Z,92.49
2022-12-20T19:19:24.699Z,89.58
2022-12-20T19:21:53.364Z,91.98
2022-12-20T19:24:21.942Z,93.48
2022-12-20T19:26:50.626Z,91.67
2022-12-20T19:29:19.720Z,90.51
2022-12-20T19:31:48.452Z,89.51
2022-12-20T19:34:17.198Z,88.43
2022-12-20T19:36:48.614Z,89.14
2022-12-20T19:39:23.295Z,88.94
2022-12-20T19:42:22.314Z,90.77
2022-12-20T19:44:41.119Z,93.26
2022-12-20T19:47:09.802Z,93.15
2022-12-20T19:49:38.587Z,93.98
2022-12-20T19:52:07.788Z,93.82
2022-12-20T19:54:36.416Z,92.57
2022-12-20T19:57:05.066Z,91.67
2022-12-20T19:59:33.851Z,91.52
2022-12-20T20:02:02.562Z,89.91
2022-12-20T20:04:31.734Z,91.86
2022-12-20T20:07:00.731Z,91.69
2022-12-20T20:09:30.534Z,91.69
2022-12-20T20:11:59.325Z,92.79
2022-12-20T20:14:28.216Z,94.34
2022-12-20T20:16:56.815Z,94.17
2022-12-20T20:19:25.799Z,95.47
2022-12-20T20:21:54.504Z,94.48
2022-12-20T20:24:23.160Z,93.76
2022-12-20T20:26:51.844Z,92.91
2022-12-20T20:29:20.847Z,92.52
2022-12-20T20:31:49.631Z,95.56
2022-12-20T20:34:18.621Z,94.68
2022-12-20T20:36:47.412Z,95.77
2022-12-20T20:39:16.200Z,95.66
2022-12-20T20:41:44.874Z,96.42
2022-12-20T20:44:13.461Z,97.13
2022-12-20T20:46:42.120Z,96.50
2022-12-20T20:49:11.240Z,95.61
2022-12-20T20:51:40.363Z,94.19
2022-12-20T20:54:09.024Z,92.87
2022-12-20T20:56:37.669Z,91.68
2022-12-20T20:59:10.545Z,92.22
2022-12-20T21:01:44.014Z,91.89
2022-12-20T21:04:12.948Z,89.67
2022-12-20T21:06:42.340Z,89.77
2022-12-20T21:09:11.713Z,94.55
2022-12-20T21:11:41.034Z,95.41
2022-12-20T21:14:09.775Z,95.70
2022-12-20T21:16:40.724Z,96.62
2022-12-20T21:19:10.223Z,96.22
2022-12-20T21:21:38.804Z,96.03
2022-12-20T21:24:07.992Z,95.98
2022-12-20T21:26:36.784Z,97.16
2022-12-20T21:29:05.363Z,96.98
2022-12-20T21:31:34.086Z,95.77
2022-12-20T21:34:03.762Z,94.97
2022-12-20T21:36:32.549Z,94.46
2022-12-20T21:39:01.141Z,94.74
2022-12-20T21:41:30.835Z,93.63
2022-12-20T21:44:01.459Z,91.94
2022-12-20T21:46:32.231Z,90.22
2022-12-20T21:49:01.302Z,90.57
2022-12-20T21:51:31.223Z,90.52
2022-12-20T21:54:02.011Z,90.23
2022-12-20T21:56:34.316Z,89.72
2022-12-20T21:59:04.564Z,92.41
2022-12-20T22:01:33.283Z,92.40
2022-12-20T22:04:05.527Z,92.60
2022-12-20T22:06:36.755Z,92.60
2022-12-20T22:09:07.696Z,92.71
2022-12-20T22:11:37.082Z,95.40
2022-12-20T22:14:06.396Z,96.22
2022-12-20T22:16:35.507Z,96.69
2022-12-20T22:19:04.508Z,96.17
2022-12-20T22:21:36.346Z,95.26
2022-12-20T22:24:05.585Z,95.06
2022-12-20T22:26:34.837Z,94.22
2022-12-20T22:29:05.887Z,94.01
2022-12-20T22:31:36.687Z,94.03
2022-12-20T22:34:05.703Z,94.62
2022-12-20T22:36:34.916Z,95.89
2022-12-20T22:39:04.107Z,97.01
2022-12-20T22:41:35.157Z,97.16
2022-12-20T22:44:04.773Z,96.81
2022-12-20T22:46:34.043Z,96.92
2022-12-20T22:49:04.165Z,97.00
2022-12-20T22:51:33.941Z,96.66
2022-12-20T22:54:03.181Z,96.72
2022-12-20T22:56:31.968Z,96.98
2022-12-20T22:59:01.487Z,97.57
2022-12-20T23:01:30.460Z,97.41
2022-12-20T23:03:59.837Z,97.30
2022-12-20T23:06:29.069Z,97.19
2022-12-20T23:08:59.381Z,97.21
2022-12-20T23:11:49.283Z,96.90
2022-12-20T23:14:39.969Z,97.13
2022-12-20T23:17:11.036Z,96.97
2022-12-20T23:19:58.910Z,96.44
2022-12-20T23:22:40.551Z,96.28
2022-12-20T23:25:18.608Z,96.44
2022-12-20T23:27:50.049Z,96.24
2022-12-20T23:30:22.628Z,95.82
2022-12-20T23:32:54.433Z,95.39
2022-12-20T23:35:27.264Z,95.75
2022-12-20T23:37:57.214Z,96.47
2022-12-20T23:40:26.132Z,96.86
2022-12-20T23:42:55.328Z,97.20
2022-12-20T23:45:24.506Z,97.99
2022-12-20T23:47:53.749Z,97.53
2022-12-20T23:50:23.319Z,96.82
2022-12-20T23:52:52.690Z,97.13
2022-12-20T23:55:22.118Z,96.88
2022-12-20T23:57:51.518Z,98.59
